sensor_id;sensor_type;location;lat;lon;timestamp;noise_LAeq;noise_LA_min;noise_LA_max;noise_LA01;noise_LA95
58251;Laerm;51449;51.676;5.812;2023-06-04T00:02:12;45.52;31.96;62.92;;
58251;Laerm;51449;51.676;5.812;2023-06-04T00:04:52;53.92;32.54;69.20;;
58251;Laerm;51449;51.676;5.812;2023-06-04T00:07:34;47.40;31.29;60.48;;
58251;Laerm;51449;51.676;5.812;2023-06-04T00:10:14;46.90;33.30;64.57;;
58251;Laerm;51449;51.676;5.812;2023-06-04T00:12:55;51.30;31.57;67.83;;
58251;Laerm;51449;51.676;5.812;2023-06-04T00:15:35;49.80;31.06;65.13;;
58251;Laerm;51449;51.676;5.812;2023-06-04T00:18:15;49.01;32.02;66.63;;
58251;Laerm;51449;51.676;5.812;2023-06-04T00:20:56;39.21;31.47;49.42;;
58251;Laerm;51449;51.676;5.812;2023-06-04T00:23:36;52.39;31.40;67.66;;
58251;Laerm;51449;51.676;5.812;2023-06-04T00:26:16;51.70;31.03;67.17;;
58251;Laerm;51449;51.676;5.812;2023-06-04T00:29:00;53.61;32.90;66.69;;
58251;Laerm;51449;51.676;5.812;2023-06-04T00:31:41;41.09;32.35;63.91;;
58251;Laerm;51449;51.676;5.812;2023-06-04T00:34:21;54.37;31.56;70.01;;
58251;Laerm;51449;51.676;5.812;2023-06-04T00:37:02;50.92;34.49;65.33;;
58251;Laerm;51449;51.676;5.812;2023-06-04T00:39:43;50.41;31.53;63.86;;
58251;Laerm;51449;51.676;5.812;2023-06-04T00:42:23;52.81;31.72;68.77;;
58251;Laerm;51449;51.676;5.812;2023-06-04T00:45:05;49.58;32.69;65.76;;
58251;Laerm;51449;51.676;5.812;2023-06-04T00:47:47;48.98;31.24;66.53;;
58251;Laerm;51449;51.676;5.812;2023-06-04T00:50:28;47.71;32.18;64.78;;
58251;Laerm;51449;51.676;5.812;2023-06-04T00:53:09;44.50;31.08;61.53;;
58251;Laerm;51449;51.676;5.812;2023-06-04T00:55:51;46.03;30.86;67.13;;
58251;Laerm;51449;51.676;5.812;2023-06-04T00:58:37;53.11;30.66;70.59;;
58251;Laerm;51449;51.676;5.812;2023-06-04T01:04:24;47.79;30.09;66.28;;
58251;Laerm;51449;51.676;5.812;2023-06-04T01:07:09;48.79;31.12;66.27;;
58251;Laerm;51449;51.676;5.812;2023-06-04T01:09:49;47.30;31.01;63.59;;
58251;Laerm;51449;51.676;5.812;2023-06-04T01:12:30;44.52;29.60;61.53;;
58251;Laerm;51449;51.676;5.812;2023-06-04T01:15:11;46.36;29.44;65.13;;
58251;Laerm;51449;51.676;5.812;2023-06-04T01:17:59;48.68;28.58;69.60;;
58251;Laerm;51449;51.676;5.812;2023-06-04T01:20:47;45.44;29.50;63.74;;
58251;Laerm;51449;51.676;5.812;2023-06-04T01:23:51;51.08;29.61;65.37;;
58251;Laerm;51449;51.676;5.812;2023-06-04T01:26:41;49.59;29.79;71.26;;
58251;Laerm;51449;51.676;5.812;2023-06-04T01:29:23;49.12;29.88;66.51;;
58251;Laerm;51449;51.676;5.812;2023-06-04T01:32:04;51.75;28.71;72.11;;
58251;Laerm;51449;51.676;5.812;2023-06-04T01:34:46;48.43;29.27;69.00;;
58251;Laerm;51449;51.676;5.812;2023-06-04T01:37:26;41.19;28.47;61.89;;
58251;Laerm;51449;51.676;5.812;2023-06-04T01:40:07;38.28;29.29;55.60;;
58251;Laerm;51449;51.676;5.812;2023-06-04T01:42:48;50.80;30.60;66.60;;
58251;Laerm;51449;51.676;5.812;2023-06-04T01:45:30;48.26;28.79;65.35;;
58251;Laerm;51449;51.676;5.812;2023-06-04T01:48:10;47.98;30.64;64.76;;
58251;Laerm;51449;51.676;5.812;2023-06-04T01:50:51;43.49;28.61;60.35;;
58251;Laerm;51449;51.676;5.812;2023-06-04T01:53:31;43.58;31.23;58.51;;
58251;Laerm;51449;51.676;5.812;2023-06-04T01:56:11;37.51;30.22;47.88;;
58251;Laerm;51449;51.676;5.812;2023-06-04T01:58:53;40.39;29.07;55.18;;
58251;Laerm;51449;51.676;5.812;2023-06-04T02:01:33;38.17;29.35;52.57;;
58251;Laerm;51449;51.676;5.812;2023-06-04T02:04:14;50.33;30.68;67.73;;
58251;Laerm;51449;51.676;5.812;2023-06-04T02:06:54;40.15;29.44;59.93;;
58251;Laerm;51449;51.676;5.812;2023-06-04T02:09:37;37.24;29.67;47.15;;
58251;Laerm;51449;51.676;5.812;2023-06-04T02:12:18;45.19;29.85;62.32;;
58251;Laerm;51449;51.676;5.812;2023-06-04T02:14:59;48.16;30.57;65.14;;
58251;Laerm;51449;51.676;5.812;2023-06-04T02:17:39;37.54;29.75;47.72;;
58251;Laerm;51449;51.676;5.812;2023-06-04T02:20:20;49.20;30.93;64.80;;
58251;Laerm;51449;51.676;5.812;2023-06-04T02:23:01;47.01;30.70;67.28;;
58251;Laerm;51449;51.676;5.812;2023-06-04T02:25:41;54.92;31.45;71.40;;
58251;Laerm;51449;51.676;5.812;2023-06-04T02:28:24;57.16;38.24;71.39;;
58251;Laerm;51449;51.676;5.812;2023-06-04T02:31:05;58.56;40.42;70.51;;
58251;Laerm;51449;51.676;5.812;2023-06-04T02:33:46;59.06;40.87;72.48;;
58251;Laerm;51449;51.676;5.812;2023-06-04T02:36:28;62.28;41.31;80.27;;
58251;Laerm;51449;51.676;5.812;2023-06-04T02:39:08;59.01;42.03;71.00;;
58251;Laerm;51449;51.676;5.812;2023-06-04T02:41:49;58.79;41.46;71.68;;
58251;Laerm;51449;51.676;5.812;2023-06-04T02:44:30;59.92;43.89;71.84;;
58251;Laerm;51449;51.676;5.812;2023-06-04T02:47:11;59.09;42.73;71.38;;
58251;Laerm;51449;51.676;5.812;2023-06-04T02:49:51;59.42;44.41;71.66;;
58251;Laerm;51449;51.676;5.812;2023-06-04T02:52:31;61.52;42.70;77.28;;
58251;Laerm;51449;51.676;5.812;2023-06-04T02:55:13;66.83;42.40;78.60;;
58251;Laerm;51449;51.676;5.812;2023-06-04T02:57:53;62.60;42.17;78.51;;
58251;Laerm;51449;51.676;5.812;2023-06-04T03:00:34;60.14;38.28;71.90;;
58251;Laerm;51449;51.676;5.812;2023-06-04T03:03:15;67.10;41.18;83.67;;
58251;Laerm;51449;51.676;5.812;2023-06-04T03:05:55;67.40;39.00;83.30;;
58251;Laerm;51449;51.676;5.812;2023-06-04T03:08:35;68.74;42.70;83.95;;
58251;Laerm;51449;51.676;5.812;2023-06-04T03:11:17;67.45;41.62;82.74;;
58251;Laerm;51449;51.676;5.812;2023-06-04T03:14:01;60.37;40.15;80.35;;
58251;Laerm;51449;51.676;5.812;2023-06-04T03:16:41;59.04;39.81;70.09;;
58251;Laerm;51449;51.676;5.812;2023-06-04T03:19:21;59.42;39.65;77.05;;
58251;Laerm;51449;51.676;5.812;2023-06-04T03:22:01;61.53;37.96;79.46;;
58251;Laerm;51449;51.676;5.812;2023-06-04T03:24:45;56.93;37.65;70.38;;
58251;Laerm;51449;51.676;5.812;2023-06-04T03:27:25;66.00;39.41;80.58;;
58251;Laerm;51449;51.676;5.812;2023-06-04T03:30:07;67.82;39.81;80.95;;
58251;Laerm;51449;51.676;5.812;2023-06-04T03:33:24;68.08;36.69;94.97;;
58251;Laerm;51449;51.676;5.812;2023-06-04T03:36:04;56.28;36.29;68.11;;
58251;Laerm;51449;51.676;5.812;2023-06-04T03:38:45;64.55;38.68;81.78;;
58251;Laerm;51449;51.676;5.812;2023-06-04T03:41:26;55.28;37.45;69.35;;
58251;Laerm;51449;51.676;5.812;2023-06-04T03:44:07;67.15;34.83;82.96;;
58251;Laerm;51449;51.676;5.812;2023-06-04T03:46:48;66.99;34.42;86.37;;
58251;Laerm;51449;51.676;5.812;2023-06-04T03:49:30;62.35;34.97;79.03;;
58251;Laerm;51449;51.676;5.812;2023-06-04T03:52:10;67.11;35.29;83.89;;
58251;Laerm;51449;51.676;5.812;2023-06-04T03:54:52;62.52;33.50;82.30;;
58251;Laerm;51449;51.676;5.812;2023-06-04T03:57:33;53.79;33.89;71.28;;
58251;Laerm;51449;51.676;5.812;2023-06-04T04:00:15;55.77;34.50;70.10;;
58251;Laerm;51449;51.676;5.812;2023-06-04T04:03:01;73.72;37.02;89.49;;
58251;Laerm;51449;51.676;5.812;2023-06-04T04:05:43;76.93;35.88;90.16;;
58251;Laerm;51449;51.676;5.812;2023-06-04T04:08:23;76.76;36.01;90.06;;
58251;Laerm;51449;51.676;5.812;2023-06-04T04:11:04;74.06;33.77;90.12;;
58251;Laerm;51449;51.676;5.812;2023-06-04T04:13:45;57.48;35.54;82.77;;
58251;Laerm;51449;51.676;5.812;2023-06-04T04:16:29;66.55;36.59;82.36;;
58251;Laerm;51449;51.676;5.812;2023-06-04T04:19:10;60.82;34.04;81.70;;
58251;Laerm;51449;51.676;5.812;2023-06-04T04:21:52;56.96;31.52;79.30;;
58251;Laerm;51449;51.676;5.812;2023-06-04T04:24:32;54.34;33.83;68.54;;
58251;Laerm;51449;51.676;5.812;2023-06-04T04:27:16;73.35;35.56;87.96;;
58251;Laerm;51449;51.676;5.812;2023-06-04T04:29:56;67.72;35.44;81.68;;
58251;Laerm;51449;51.676;5.812;2023-06-04T04:32:42;61.36;33.88;80.79;;
58251;Laerm;51449;51.676;5.812;2023-06-04T04:35:33;61.83;33.73;79.58;;
58251;Laerm;51449;51.676;5.812;2023-06-04T04:38:16;65.06;36.90;83.25;;
58251;Laerm;51449;51.676;5.812;2023-06-04T04:41:06;69.71;36.24;85.73;;
58251;Laerm;51449;51.676;5.812;2023-06-04T04:43:48;74.64;34.32;88.98;;
58251;Laerm;51449;51.676;5.812;2023-06-04T04:46:36;75.99;36.22;90.37;;
58251;Laerm;51449;51.676;5.812;2023-06-04T04:49:16;70.67;39.43;90.58;;
58251;Laerm;51449;51.676;5.812;2023-06-04T04:51:57;61.63;34.36;74.60;;
58251;Laerm;51449;51.676;5.812;2023-06-04T04:54:37;56.55;34.96;70.67;;
58251;Laerm;51449;51.676;5.812;2023-06-04T04:57:18;67.00;36.58;82.70;;
58251;Laerm;51449;51.676;5.812;2023-06-04T05:00:03;68.24;37.96;83.80;;
58251;Laerm;51449;51.676;5.812;2023-06-04T05:02:50;57.70;36.81;72.26;;
58251;Laerm;51449;51.676;5.812;2023-06-04T05:05:32;55.19;35.82;69.44;;
58251;Laerm;51449;51.676;5.812;2023-06-04T05:08:14;56.40;36.08;74.87;;
58251;Laerm;51449;51.676;5.812;2023-06-04T05:10:55;68.38;34.07;83.12;;
58251;Laerm;51449;51.676;5.812;2023-06-04T05:13:36;66.75;34.33;83.65;;
58251;Laerm;51449;51.676;5.812;2023-06-04T05:16:17;57.07;35.06;68.69;;
58251;Laerm;51449;51.676;5.812;2023-06-04T05:19:01;70.72;34.82;93.27;;
58251;Laerm;51449;51.676;5.812;2023-06-04T05:21:45;66.37;33.89;81.91;;
58251;Laerm;51449;51.676;5.812;2023-06-04T05:24:30;67.75;35.43;87.08;;
58251;Laerm;51449;51.676;5.812;2023-06-04T05:27:14;73.17;35.85;87.77;;
58251;Laerm;51449;51.676;5.812;2023-06-04T05:29:55;69.15;35.33;89.24;;
58251;Laerm;51449;51.676;5.812;2023-06-04T05:32:35;58.72;35.45;71.55;;
58251;Laerm;51449;51.676;5.812;2023-06-04T05:35:24;56.62;35.59;70.22;;
58251;Laerm;51449;51.676;5.812;2023-06-04T05:38:05;55.74;35.37;68.79;;
58251;Laerm;51449;51.676;5.812;2023-06-04T05:40:46;51.05;33.36;64.87;;
58251;Laerm;51449;51.676;5.812;2023-06-04T05:43:27;65.64;34.73;84.95;;
58251;Laerm;51449;51.676;5.812;2023-06-04T05:46:08;71.38;35.55;85.32;;
58251;Laerm;51449;51.676;5.812;2023-06-04T05:48:51;71.73;35.12;85.56;;
58251;Laerm;51449;51.676;5.812;2023-06-04T05:51:32;71.75;38.42;86.33;;
58251;Laerm;51449;51.676;5.812;2023-06-04T05:54:12;54.97;36.33;69.68;;
58251;Laerm;51449;51.676;5.812;2023-06-04T05:56:56;57.67;35.48;72.82;;
58251;Laerm;51449;51.676;5.812;2023-06-04T05:59:37;70.93;38.20;86.03;;
58251;Laerm;51449;51.676;5.812;2023-06-04T06:02:21;72.58;37.01;86.74;;
58251;Laerm;51449;51.676;5.812;2023-06-04T06:05:02;72.41;37.10;86.64;;
58251;Laerm;51449;51.676;5.812;2023-06-04T06:07:42;61.87;36.89;80.34;;
58251;Laerm;51449;51.676;5.812;2023-06-04T06:10:23;67.73;35.59;82.57;;
58251;Laerm;51449;51.676;5.812;2023-06-04T06:13:04;64.73;34.04;83.38;;
58251;Laerm;51449;51.676;5.812;2023-06-04T06:15:46;62.07;37.71;82.62;;
58251;Laerm;51449;51.676;5.812;2023-06-04T06:18:30;62.68;34.59;82.99;;
58251;Laerm;51449;51.676;5.812;2023-06-04T06:21:10;56.39;36.32;73.42;;
58251;Laerm;51449;51.676;5.812;2023-06-04T06:23:52;67.16;36.72;86.63;;
58251;Laerm;51449;51.676;5.812;2023-06-04T06:26:32;70.60;38.07;86.27;;
58251;Laerm;51449;51.676;5.812;2023-06-04T06:29:15;67.67;37.23;83.44;;
58251;Laerm;51449;51.676;5.812;2023-06-04T06:31:56;57.58;35.79;78.64;;
58251;Laerm;51449;51.676;5.812;2023-06-04T06:34:36;58.80;37.57;80.88;;
58251;Laerm;51449;51.676;5.812;2023-06-04T06:37:17;57.14;38.36;67.67;;
58251;Laerm;51449;51.676;5.812;2023-06-04T06:39:57;59.14;34.98;82.81;;
58251;Laerm;51449;51.676;5.812;2023-06-04T06:42:38;72.87;36.02;85.92;;
58251;Laerm;51449;51.676;5.812;2023-06-04T06:45:19;68.31;35.87;85.65;;
58251;Laerm;51449;51.676;5.812;2023-06-04T06:47:59;64.30;38.94;82.87;;
58251;Laerm;51449;51.676;5.812;2023-06-04T06:50:39;69.85;35.35;83.94;;
58251;Laerm;51449;51.676;5.812;2023-06-04T06:53:20;70.25;35.55;83.74;;
58251;Laerm;51449;51.676;5.812;2023-06-04T06:56:00;64.38;37.07;86.34;;
58251;Laerm;51449;51.676;5.812;2023-06-04T06:58:40;66.75;35.35;83.75;;
58251;Laerm;51449;51.676;5.812;2023-06-04T07:01:21;59.79;35.93;76.30;;
58251;Laerm;51449;51.676;5.812;2023-06-04T07:04:02;59.41;36.76;76.74;;
58251;Laerm;51449;51.676;5.812;2023-06-04T07:06:42;66.61;36.48;82.00;;
58251;Laerm;51449;51.676;5.812;2023-06-04T07:09:23;63.73;38.55;81.45;;
58251;Laerm;51449;51.676;5.812;2023-06-04T07:12:03;68.21;37.04;83.65;;
58251;Laerm;51449;51.676;5.812;2023-06-04T07:14:44;64.10;37.27;81.85;;
58251;Laerm;51449;51.676;5.812;2023-06-04T07:17:24;73.57;39.81;89.47;;
58251;Laerm;51449;51.676;5.812;2023-06-04T07:20:05;73.39;36.83;86.68;;
58251;Laerm;51449;51.676;5.812;2023-06-04T07:22:47;67.99;39.28;85.72;;
58251;Laerm;51449;51.676;5.812;2023-06-04T07:25:27;63.87;39.71;77.79;;
58251;Laerm;51449;51.676;5.812;2023-06-04T07:28:08;62.96;36.11;82.20;;
58251;Laerm;51449;51.676;5.812;2023-06-04T07:30:50;66.07;37.94;79.94;;
58251;Laerm;51449;51.676;5.812;2023-06-04T07:33:30;68.75;41.06;83.50;;
58251;Laerm;51449;51.676;5.812;2023-06-04T07:36:13;65.57;39.42;82.07;;
58251;Laerm;51449;51.676;5.812;2023-06-04T07:38:54;67.70;37.84;82.80;;
58251;Laerm;51449;51.676;5.812;2023-06-04T07:41:34;70.73;39.99;86.78;;
58251;Laerm;51449;51.676;5.812;2023-06-04T07:44:14;72.56;37.06;86.93;;
58251;Laerm;51449;51.676;5.812;2023-06-04T07:46:55;68.23;40.84;86.34;;
58251;Laerm;51449;51.676;5.812;2023-06-04T07:49:35;64.97;41.88;80.38;;
58251;Laerm;51449;51.676;5.812;2023-06-04T07:52:30;67.86;37.29;81.56;;
58251;Laerm;51449;51.676;5.812;2023-06-04T07:55:10;68.58;38.82;84.87;;
58251;Laerm;51449;51.676;5.812;2023-06-04T07:57:51;70.99;38.68;84.60;;
58251;Laerm;51449;51.676;5.812;2023-06-04T08:00:31;69.70;38.30;84.62;;
58251;Laerm;51449;51.676;5.812;2023-06-04T08:03:11;58.60;36.19;78.42;;
58251;Laerm;51449;51.676;5.812;2023-06-04T08:05:52;58.95;38.92;71.72;;
58251;Laerm;51449;51.676;5.812;2023-06-04T08:08:33;64.65;35.35;85.53;;
58251;Laerm;51449;51.676;5.812;2023-06-04T08:11:15;72.59;36.35;86.08;;
58251;Laerm;51449;51.676;5.812;2023-06-04T08:13:55;71.38;38.61;86.20;;
58251;Laerm;51449;51.676;5.812;2023-06-04T08:16:36;72.53;38.38;86.73;;
58251;Laerm;51449;51.676;5.812;2023-06-04T08:19:16;66.20;39.36;85.35;;
58251;Laerm;51449;51.676;5.812;2023-06-04T08:21:57;67.76;36.58;83.18;;
58251;Laerm;51449;51.676;5.812;2023-06-04T08:24:37;66.24;38.47;83.87;;
58251;Laerm;51449;51.676;5.812;2023-06-04T08:27:17;67.20;39.63;80.84;;
58251;Laerm;51449;51.676;5.812;2023-06-04T08:29:58;63.45;41.71;78.41;;
58251;Laerm;51449;51.676;5.812;2023-06-04T08:32:38;60.01;38.88;79.29;;
58251;Laerm;51449;51.676;5.812;2023-06-04T08:35:20;73.77;40.71;86.48;;
58251;Laerm;51449;51.676;5.812;2023-06-04T08:38:01;64.10;37.05;85.30;;
58251;Laerm;51449;51.676;5.812;2023-06-04T08:40:42;58.72;37.55;72.74;;
58251;Laerm;51449;51.676;5.812;2023-06-04T08:43:24;67.61;36.20;85.67;;
58251;Laerm;51449;51.676;5.812;2023-06-04T08:46:05;73.04;43.58;86.89;;
58251;Laerm;51449;51.676;5.812;2023-06-04T08:48:50;70.27;40.31;85.90;;
58251;Laerm;51449;51.676;5.812;2023-06-04T08:51:34;73.18;35.96;86.93;;
58251;Laerm;51449;51.676;5.812;2023-06-04T08:54:17;68.55;38.56;84.94;;
58251;Laerm;51449;51.676;5.812;2023-06-04T08:57:00;60.81;38.29;71.64;;
58251;Laerm;51449;51.676;5.812;2023-06-04T08:59:42;66.01;38.52;82.90;;
58251;Laerm;51449;51.676;5.812;2023-06-04T09:02:23;66.60;36.94;83.22;;
58251;Laerm;51449;51.676;5.812;2023-06-04T09:05:05;58.57;38.34;72.86;;
58251;Laerm;51449;51.676;5.812;2023-06-04T09:07:53;59.12;37.35;74.11;;
58251;Laerm;51449;51.676;5.812;2023-06-04T09:10:38;59.58;39.83;72.10;;
58251;Laerm;51449;51.676;5.812;2023-06-04T09:13:24;66.93;38.54;84.85;;
58251;Laerm;51449;51.676;5.812;2023-06-04T09:16:08;72.54;39.90;87.11;;
58251;Laerm;51449;51.676;5.812;2023-06-04T09:18:50;68.42;37.76;85.82;;
58251;Laerm;51449;51.676;5.812;2023-06-04T09:21:30;69.53;39.08;83.82;;
58251;Laerm;51449;51.676;5.812;2023-06-04T09:24:10;70.69;44.98;85.36;;
58251;Laerm;51449;51.676;5.812;2023-06-04T09:26:51;71.50;40.71;87.97;;
58251;Laerm;51449;51.676;5.812;2023-06-04T09:29:32;71.00;42.46;86.12;;
58251;Laerm;51449;51.676;5.812;2023-06-04T09:32:12;65.92;36.45;83.90;;
58251;Laerm;51449;51.676;5.812;2023-06-04T09:35:08;58.20;39.33;71.69;;
58251;Laerm;51449;51.676;5.812;2023-06-04T09:37:57;65.07;38.35;83.34;;
58251;Laerm;51449;51.676;5.812;2023-06-04T09:40:40;65.66;41.72;79.94;;
58251;Laerm;51449;51.676;5.812;2023-06-04T09:43:22;60.34;40.69;73.45;;
58251;Laerm;51449;51.676;5.812;2023-06-04T09:46:11;60.46;44.94;77.34;;
58251;Laerm;51449;51.676;5.812;2023-06-04T09:49:03;70.94;41.70;85.32;;
58251;Laerm;51449;51.676;5.812;2023-06-04T09:51:47;72.46;43.69;85.99;;
58251;Laerm;51449;51.676;5.812;2023-06-04T09:54:39;71.17;40.08;85.75;;
58251;Laerm;51449;51.676;5.812;2023-06-04T09:57:23;59.51;40.22;72.51;;
58251;Laerm;51449;51.676;5.812;2023-06-04T10:00:04;59.12;40.62;69.22;;
58251;Laerm;51449;51.676;5.812;2023-06-04T10:02:58;58.41;40.82;69.05;;
58251;Laerm;51449;51.676;5.812;2023-06-04T10:05:41;59.39;40.04;71.75;;
58251;Laerm;51449;51.676;5.812;2023-06-04T10:08:22;60.51;37.18;73.35;;
58251;Laerm;51449;51.676;5.812;2023-06-04T10:11:04;66.92;38.33;85.02;;
58251;Laerm;51449;51.676;5.812;2023-06-04T10:16:58;70.46;39.58;84.79;;
58251;Laerm;51449;51.676;5.812;2023-06-04T10:19:43;58.73;41.23;69.26;;
58251;Laerm;51449;51.676;5.812;2023-06-04T10:22:24;59.75;39.96;75.85;;
58251;Laerm;51449;51.676;5.812;2023-06-04T10:25:06;62.96;38.66;77.57;;
58251;Laerm;51449;51.676;5.812;2023-06-04T10:27:50;59.21;38.57;73.20;;
58251;Laerm;51449;51.676;5.812;2023-06-04T10:30:31;66.07;37.93;83.90;;
58251;Laerm;51449;51.676;5.812;2023-06-04T10:33:12;59.89;39.09;74.14;;
58251;Laerm;51449;51.676;5.812;2023-06-04T10:35:55;58.19;41.26;71.45;;
58251;Laerm;51449;51.676;5.812;2023-06-04T10:38:45;64.60;41.64;84.47;;
58251;Laerm;51449;51.676;5.812;2023-06-04T10:41:26;65.99;38.63;81.69;;
58251;Laerm;51449;51.676;5.812;2023-06-04T10:44:07;69.13;38.12;84.79;;
58251;Laerm;51449;51.676;5.812;2023-06-04T10:46:47;59.71;39.28;72.25;;
58251;Laerm;51449;51.676;5.812;2023-06-04T10:49:29;63.81;43.98;78.86;;
58251;Laerm;51449;51.676;5.812;2023-06-04T10:52:11;62.89;41.51;80.77;;
58251;Laerm;51449;51.676;5.812;2023-06-04T10:55:03;61.51;38.41;78.64;;
58251;Laerm;51449;51.676;5.812;2023-06-04T10:57:57;61.59;41.91;86.60;;
58251;Laerm;51449;51.676;5.812;2023-06-04T11:00:40;62.00;45.11;72.79;;
58251;Laerm;51449;51.676;5.812;2023-06-04T11:03:22;57.70;38.21;69.30;;
58251;Laerm;51449;51.676;5.812;2023-06-04T11:06:15;64.85;41.03;88.63;;
58251;Laerm;51449;51.676;5.812;2023-06-04T11:09:05;59.82;44.96;69.75;;
58251;Laerm;51449;51.676;5.812;2023-06-04T11:11:57;68.80;42.13;86.18;;
58251;Laerm;51449;51.676;5.812;2023-06-04T11:14:37;70.44;41.52;85.53;;
58251;Laerm;51449;51.676;5.812;2023-06-04T11:17:18;59.96;43.97;69.70;;
58251;Laerm;51449;51.676;5.812;2023-06-04T11:19:58;62.39;43.22;78.64;;
58251;Laerm;51449;51.676;5.812;2023-06-04T11:22:40;68.68;42.42;85.43;;
58251;Laerm;51449;51.676;5.812;2023-06-04T11:25:20;70.07;40.50;86.53;;
58251;Laerm;51449;51.676;5.812;2023-06-04T11:28:02;71.43;39.78;87.11;;
58251;Laerm;51449;51.676;5.812;2023-06-04T11:30:42;64.60;40.61;79.50;;
58251;Laerm;51449;51.676;5.812;2023-06-04T11:33:22;63.45;41.53;78.00;;
58251;Laerm;51449;51.676;5.812;2023-06-04T11:36:03;61.40;39.16;76.18;;
58251;Laerm;51449;51.676;5.812;2023-06-04T11:38:55;58.75;36.78;75.44;;
58251;Laerm;51449;51.676;5.812;2023-06-04T11:41:36;55.84;37.29;74.01;;
58251;Laerm;51449;51.676;5.812;2023-06-04T11:44:20;67.08;36.01;84.72;;
58251;Laerm;51449;51.676;5.812;2023-06-04T11:47:06;58.85;39.81;69.80;;
58251;Laerm;51449;51.676;5.812;2023-06-04T11:49:54;59.77;40.10;72.21;;
58251;Laerm;51449;51.676;5.812;2023-06-04T11:52:36;70.20;42.26;85.53;;
58251;Laerm;51449;51.676;5.812;2023-06-04T11:55:17;69.16;42.05;83.47;;
58251;Laerm;51449;51.676;5.812;2023-06-04T11:57:58;71.64;41.43;87.41;;
58251;Laerm;51449;51.676;5.812;2023-06-04T12:00:38;68.61;38.61;84.75;;
58251;Laerm;51449;51.676;5.812;2023-06-04T12:03:19;61.28;42.04;79.18;;
58251;Laerm;51449;51.676;5.812;2023-06-04T12:06:15;60.09;44.77;75.00;;
58251;Laerm;51449;51.676;5.812;2023-06-04T12:08:56;70.76;41.72;86.54;;
58251;Laerm;51449;51.676;5.812;2023-06-04T12:11:37;65.41;40.30;85.31;;
58251;Laerm;51449;51.676;5.812;2023-06-04T12:14:18;61.71;39.77;74.87;;
58251;Laerm;51449;51.676;5.812;2023-06-04T12:17:07;60.76;40.67;71.69;;
58251;Laerm;51449;51.676;5.812;2023-06-04T12:19:50;55.48;34.51;68.03;;
58251;Laerm;51449;51.676;5.812;2023-06-04T12:22:32;61.25;37.23;80.94;;
58251;Laerm;51449;51.676;5.812;2023-06-04T12:25:23;62.59;39.01;78.71;;
58251;Laerm;51449;51.676;5.812;2023-06-04T12:28:05;58.29;37.16;70.68;;
58251;Laerm;51449;51.676;5.812;2023-06-04T12:30:45;69.33;38.18;85.15;;
58251;Laerm;51449;51.676;5.812;2023-06-04T12:33:26;69.40;39.15;82.36;;
58251;Laerm;51449;51.676;5.812;2023-06-04T12:36:07;70.31;43.97;86.45;;
58251;Laerm;51449;51.676;5.812;2023-06-04T12:38:48;71.86;41.44;86.06;;
58251;Laerm;51449;51.676;5.812;2023-06-04T12:41:29;68.22;43.22;84.12;;
58251;Laerm;51449;51.676;5.812;2023-06-04T12:44:10;60.20;39.83;80.11;;
58251;Laerm;51449;51.676;5.812;2023-06-04T12:46:50;59.15;41.13;70.00;;
58251;Laerm;51449;51.676;5.812;2023-06-04T12:49:32;59.68;40.20;72.40;;
58251;Laerm;51449;51.676;5.812;2023-06-04T12:52:13;58.73;34.57;75.23;;
58251;Laerm;51449;51.676;5.812;2023-06-04T12:54:54;57.26;36.95;67.43;;
58251;Laerm;51449;51.676;5.812;2023-06-04T12:57:35;67.37;40.28;83.80;;
58251;Laerm;51449;51.676;5.812;2023-06-04T13:00:15;71.44;39.46;87.83;;
58251;Laerm;51449;51.676;5.812;2023-06-04T13:02:56;70.34;40.84;86.69;;
58251;Laerm;51449;51.676;5.812;2023-06-04T13:05:37;68.24;39.18;84.41;;
58251;Laerm;51449;51.676;5.812;2023-06-04T13:08:19;69.57;36.56;85.35;;
58251;Laerm;51449;51.676;5.812;2023-06-04T13:11:03;60.87;37.77;79.37;;
58251;Laerm;51449;51.676;5.812;2023-06-04T13:13:46;58.86;37.64;72.38;;
58251;Laerm;51449;51.676;5.812;2023-06-04T13:16:26;57.75;37.20;71.04;;
58251;Laerm;51449;51.676;5.812;2023-06-04T13:19:08;55.58;36.98;67.42;;
58251;Laerm;51449;51.676;5.812;2023-06-04T13:21:49;54.76;37.81;66.50;;
58251;Laerm;51449;51.676;5.812;2023-06-04T13:24:31;58.25;40.94;68.19;;
58251;Laerm;51449;51.676;5.812;2023-06-04T13:27:12;63.29;37.74;78.67;;
58251;Laerm;51449;51.676;5.812;2023-06-04T13:29:56;67.27;39.89;84.27;;
58251;Laerm;51449;51.676;5.812;2023-06-04T13:32:36;66.25;39.61;84.62;;
58251;Laerm;51449;51.676;5.812;2023-06-04T13:35:16;66.39;39.20;81.61;;
58251;Laerm;51449;51.676;5.812;2023-06-04T13:37:58;65.45;35.71;81.03;;
58251;Laerm;51449;51.676;5.812;2023-06-04T13:40:39;59.65;36.82;78.30;;
58251;Laerm;51449;51.676;5.812;2023-06-04T13:43:19;57.29;37.87;71.04;;
58251;Laerm;51449;51.676;5.812;2023-06-04T13:46:03;57.24;43.12;73.23;;
58251;Laerm;51449;51.676;5.812;2023-06-04T13:48:44;55.42;39.34;70.07;;
58251;Laerm;51449;51.676;5.812;2023-06-04T13:51:25;56.27;41.70;70.11;;
58251;Laerm;51449;51.676;5.812;2023-06-04T13:54:05;71.45;38.85;86.21;;
58251;Laerm;51449;51.676;5.812;2023-06-04T13:56:48;72.16;38.94;87.00;;
58251;Laerm;51449;51.676;5.812;2023-06-04T13:59:29;71.13;41.18;85.73;;
58251;Laerm;51449;51.676;5.812;2023-06-04T14:02:11;61.06;44.59;82.50;;
58251;Laerm;51449;51.676;5.812;2023-06-04T14:04:53;57.84;38.93;68.52;;
58251;Laerm;51449;51.676;5.812;2023-06-04T14:07:35;57.19;40.09;67.49;;
58251;Laerm;51449;51.676;5.812;2023-06-04T14:10:16;57.46;39.00;70.70;;
58251;Laerm;51449;51.676;5.812;2023-06-04T14:12:56;57.00;36.34;74.40;;
58251;Laerm;51449;51.676;5.812;2023-06-04T14:15:37;56.12;34.73;65.81;;
58251;Laerm;51449;51.676;5.812;2023-06-04T14:18:17;58.48;39.19;69.15;;
58251;Laerm;51449;51.676;5.812;2023-06-04T14:20:58;59.83;41.60;72.00;;
58251;Laerm;51449;51.676;5.812;2023-06-04T14:23:38;59.00;42.19;71.80;;
58251;Laerm;51449;51.676;5.812;2023-06-04T14:26:18;58.89;41.12;73.43;;
58251;Laerm;51449;51.676;5.812;2023-06-04T14:28:59;60.39;38.65;76.08;;
58251;Laerm;51449;51.676;5.812;2023-06-04T14:31:39;66.29;38.36;81.73;;
58251;Laerm;51449;51.676;5.812;2023-06-04T14:34:20;63.97;36.39;82.66;;
58251;Laerm;51449;51.676;5.812;2023-06-04T14:37:00;70.19;36.37;84.17;;
58251;Laerm;51449;51.676;5.812;2023-06-04T14:39:41;71.97;41.66;86.00;;
58251;Laerm;51449;51.676;5.812;2023-06-04T14:42:21;70.54;37.98;84.64;;
58251;Laerm;51449;51.676;5.812;2023-06-04T14:45:01;65.67;38.92;82.80;;
58251;Laerm;51449;51.676;5.812;2023-06-04T14:47:42;62.84;38.23;83.99;;
58251;Laerm;51449;51.676;5.812;2023-06-04T14:50:22;59.47;41.82;72.88;;
58251;Laerm;51449;51.676;5.812;2023-06-04T14:53:03;55.92;42.28;69.65;;
58251;Laerm;51449;51.676;5.812;2023-06-04T14:55:47;60.69;41.18;75.49;;
58251;Laerm;51449;51.676;5.812;2023-06-04T14:58:28;56.64;38.94;69.15;;
58251;Laerm;51449;51.676;5.812;2023-06-04T15:01:09;63.63;39.12;78.03;;
58251;Laerm;51449;51.676;5.812;2023-06-04T15:03:50;57.28;37.62;68.83;;
58251;Laerm;51449;51.676;5.812;2023-06-04T15:06:32;55.59;41.83;67.53;;
58251;Laerm;51449;51.676;5.812;2023-06-04T15:09:13;62.27;41.88;73.68;;
58251;Laerm;51449;51.676;5.812;2023-06-04T15:11:56;73.89;40.27;90.79;;
58251;Laerm;51449;51.676;5.812;2023-06-04T15:14:36;65.86;40.49;89.81;;